sensor_id;sensor_type;location;lat;lon;timestamp;temperature;humidity
7218;DHT22;3650;53.580;10.094;2023-11-21T00:00:57;11.50;99.50
7218;DHT22;3650;53.580;10.094;2023-11-21T00:03:28;11.50;99.30
7218;DHT22;3650;53.580;10.094;2023-11-21T00:05:55;11.40;99.10
7218;DHT22;3650;53.580;10.094;2023-11-21T00:08:22;11.50;99.00
7218;DHT22;3650;53.580;10.094;2023-11-21T00:10:48;11.40;99.30
7218;DHT22;3650;53.580;10.094;2023-11-21T00:13:16;11.40;99.30
7218;DHT22;3650;53.580;10.094;2023-11-21T00:15:43;11.40;99.30
7218;DHT22;3650;53.580;10.094;2023-11-21T00:18:10;11.40;99.00
7218;DHT22;3650;53.580;10.094;2023-11-21T00:20:38;11.30;98.70
7218;DHT22;3650;53.580;10.094;2023-11-21T00:23:05;11.30;98.40
7218;DHT22;3650;53.580;10.094;2023-11-21T00:25:32;11.30;98.30
7218;DHT22;3650;53.580;10.094;2023-11-21T00:27:59;11.30;98.40
7218;DHT22;3650;53.580;10.094;2023-11-21T00:30:27;11.30;98.50
7218;DHT22;3650;53.580;10.094;2023-11-21T00:32:54;11.30;97.70
7218;DHT22;3650;53.580;10.094;2023-11-21T00:35:21;11.30;97.70
7218;DHT22;3650;53.580;10.094;2023-11-21T00:37:49;11.20;97.30
7218;DHT22;3650;53.580;10.094;2023-11-21T00:40:16;11.20;97.40
7218;DHT22;3650;53.580;10.094;2023-11-21T00:42:44;11.30;97.60
7218;DHT22;3650;53.580;10.094;2023-11-21T00:45:12;11.20;97.30
7218;DHT22;3650;53.580;10.094;2023-11-21T00:47:38;11.20;97.10
7218;DHT22;3650;53.580;10.094;2023-11-21T00:50:06;11.20;96.90
7218;DHT22;3650;53.580;10.094;2023-11-21T00:52:33;11.20;96.70
7218;DHT22;3650;53.580;10.094;2023-11-21T00:55:01;11.20;96.90
7218;DHT22;3650;53.580;10.094;2023-11-21T00:57:28;11.20;96.80
7218;DHT22;3650;53.580;10.094;2023-11-21T00:59:55;11.10;96.70
7218;DHT22;3650;53.580;10.094;2023-11-21T01:02:22;11.10;97.00
7218;DHT22;3650;53.580;10.094;2023-11-21T01:04:49;11.10;97.30
7218;DHT22;3650;53.580;10.094;2023-11-21T01:07:15;11.20;97.30
7218;DHT22;3650;53.580;10.094;2023-11-21T01:09:43;11.20;97.20
7218;DHT22;3650;53.580;10.094;2023-11-21T01:12:11;11.20;97.20
7218;DHT22;3650;53.580;10.094;2023-11-21T01:14:38;11.20;97.10
7218;DHT22;3650;53.580;10.094;2023-11-21T01:17:05;11.20;96.70
7218;DHT22;3650;53.580;10.094;2023-11-21T01:19:31;11.10;96.10
7218;DHT22;3650;53.580;10.094;2023-11-21T01:21:58;11.10;95.90
7218;DHT22;3650;53.580;10.094;2023-11-21T01:24:25;11.10;96.20
7218;DHT22;3650;53.580;10.094;2023-11-21T01:26:52;11.10;95.30
7218;DHT22;3650;53.580;10.094;2023-11-21T01:29:20;11.00;95.10
7218;DHT22;3650;53.580;10.094;2023-11-21T01:31:46;11.00;94.90
7218;DHT22;3650;53.580;10.094;2023-11-21T01:34:13;11.00;95.30
7218;DHT22;3650;53.580;10.094;2023-11-21T01:36:40;11.00;95.40
7218;DHT22;3650;53.580;10.094;2023-11-21T01:39:07;11.00;95.30
7218;DHT22;3650;53.580;10.094;2023-11-21T01:41:36;11.00;95.30
7218;DHT22;3650;53.580;10.094;2023-11-21T01:44:04;11.00;95.30
7218;DHT22;3650;53.580;10.094;2023-11-21T01:46:34;11.00;95.10
7218;DHT22;3650;53.580;10.094;2023-11-21T01:49:01;11.00;94.80
7218;DHT22;3650;53.580;10.094;2023-11-21T01:51:29;11.00;94.40
7218;DHT22;3650;53.580;10.094;2023-11-21T01:53:56;11.00;94.10
7218;DHT22;3650;53.580;10.094;2023-11-21T01:56:24;11.00;93.90
7218;DHT22;3650;53.580;10.094;2023-11-21T01:58:51;11.00;94.00
7218;DHT22;3650;53.580;10.094;2023-11-21T02:01:19;11.00;93.90
7218;DHT22;3650;53.580;10.094;2023-11-21T02:03:47;11.00;94.00
7218;DHT22;3650;53.580;10.094;2023-11-21T02:06:14;11.00;93.70
7218;DHT22;3650;53.580;10.094;2023-11-21T02:08:41;10.90;93.50
7218;DHT22;3650;53.580;10.094;2023-11-21T02:11:09;10.90;93.30
7218;DHT22;3650;53.580;10.094;2023-11-21T02:13:38;10.90;92.90
7218;DHT22;3650;53.580;10.094;2023-11-21T02:16:09;10.90;92.90
7218;DHT22;3650;53.580;10.094;2023-11-21T02:18:36;10.90;93.10
7218;DHT22;3650;53.580;10.094;2023-11-21T02:21:06;10.80;93.10
7218;DHT22;3650;53.580;10.094;2023-11-21T02:23:34;10.80;93.00
7218;DHT22;3650;53.580;10.094;2023-11-21T02:26:01;10.80;92.90
7218;DHT22;3650;53.580;10.094;2023-11-21T02:28:30;10.80;92.70
7218;DHT22;3650;53.580;10.094;2023-11-21T02:30:55;10.80;92.80
7218;DHT22;3650;53.580;10.094;2023-11-21T02:33:24;10.80;92.70
7218;DHT22;3650;53.580;10.094;2023-11-21T02:35:51;10.80;92.60
7218;DHT22;3650;53.580;10.094;2023-11-21T02:38:18;10.80;92.50
7218;DHT22;3650;53.580;10.094;2023-11-21T02:40:47;10.80;92.50
7218;DHT22;3650;53.580;10.094;2023-11-21T02:43:14;10.80;92.50
7218;DHT22;3650;53.580;10.094;2023-11-21T02:45:41;10.80;92.40
7218;DHT22;3650;53.580;10.094;2023-11-21T02:48:08;10.70;92.20
7218;DHT22;3650;53.580;10.094;2023-11-21T02:50:35;10.70;92.00
7218;DHT22;3650;53.580;10.094;2023-11-21T02:53:02;10.70;92.00
7218;DHT22;3650;53.580;10.094;2023-11-21T02:55:31;10.70;91.80
7218;DHT22;3650;53.580;10.094;2023-11-21T02:58:01;10.70;91.80
7218;DHT22;3650;53.580;10.094;2023-11-21T03:00:29;10.70;91.70
7218;DHT22;3650;53.580;10.094;2023-11-21T03:02:56;10.70;91.60
7218;DHT22;3650;53.580;10.094;2023-11-21T03:05:23;10.70;91.80
7218;DHT22;3650;53.580;10.094;2023-11-21T03:07:49;10.70;91.80
7218;DHT22;3650;53.580;10.094;2023-11-21T03:10:16;10.60;91.80
7218;DHT22;3650;53.580;10.094;2023-11-21T03:12:43;10.60;91.70
7218;DHT22;3650;53.580;10.094;2023-11-21T03:15:11;10.60;91.60
7218;DHT22;3650;53.580;10.094;2023-11-21T03:17:38;10.60;91.80
7218;DHT22;3650;53.580;10.094;2023-11-21T03:20:07;10.60;91.80
7218;DHT22;3650;53.580;10.094;2023-11-21T03:22:36;10.60;91.70
7218;DHT22;3650;53.580;10.094;2023-11-21T03:25:03;10.60;91.80
7218;DHT22;3650;53.580;10.094;2023-11-21T03:27:31;10.60;91.80
7218;DHT22;3650;53.580;10.094;2023-11-21T03:29:58;10.60;91.70
7218;DHT22;3650;53.580;10.094;2023-11-21T03:32:26;10.60;91.50
7218;DHT22;3650;53.580;10.094;2023-11-21T03:34:54;10.60;91.20
7218;DHT22;3650;53.580;10.094;2023-11-21T03:37:22;10.60;91.30
7218;DHT22;3650;53.580;10.094;2023-11-21T03:39:48;10.60;91.30
7218;DHT22;3650;53.580;10.094;2023-11-21T03:42:15;10.50;90.90
7218;DHT22;3650;53.580;10.094;2023-11-21T03:44:43;10.50;90.80
7218;DHT22;3650;53.580;10.094;2023-11-21T03:47:10;10.50;90.70
7218;DHT22;3650;53.580;10.094;2023-11-21T03:49:38;10.40;90.50
7218;DHT22;3650;53.580;10.094;2023-11-21T03:52:05;10.40;90.70
7218;DHT22;3650;53.580;10.094;2023-11-21T03:54:34;10.40;90.90
7218;DHT22;3650;53.580;10.094;2023-11-21T03:57:01;10.40;90.60
7218;DHT22;3650;53.580;10.094;2023-11-21T03:59:28;10.40;90.60
7218;DHT22;3650;53.580;10.094;2023-11-21T04:01:55;10.40;90.70
7218;DHT22;3650;53.580;10.094;2023-11-21T04:04:22;10.40;90.80
7218;DHT22;3650;53.580;10.094;2023-11-21T04:06:51;10.30;90.60
7218;DHT22;3650;53.580;10.094;2023-11-21T04:09:18;10.30;90.70
7218;DHT22;3650;53.580;10.094;2023-11-21T04:11:45;10.30;90.80
7218;DHT22;3650;53.580;10.094;2023-11-21T04:14:12;10.30;91.00
7218;DHT22;3650;53.580;10.094;2023-11-21T04:16:38;10.30;91.10
7218;DHT22;3650;53.580;10.094;2023-11-21T04:19:06;10.30;90.90
7218;DHT22;3650;53.580;10.094;2023-11-21T04:21:34;10.30;90.90
7218;DHT22;3650;53.580;10.094;2023-11-21T04:24:03;10.20;90.90
7218;DHT22;3650;53.580;10.094;2023-11-21T04:26:30;10.30;91.10
7218;DHT22;3650;53.580;10.094;2023-11-21T04:28:57;10.30;91.30
7218;DHT22;3650;53.580;10.094;2023-11-21T04:31:24;10.10;91.00
7218;DHT22;3650;53.580;10.094;2023-11-21T04:33:51;10.30;91.10
7218;DHT22;3650;53.580;10.094;2023-11-21T04:36:17;10.20;90.90
7218;DHT22;3650;53.580;10.094;2023-11-21T04:38:44;10.20;91.10
7218;DHT22;3650;53.580;10.094;2023-11-21T04:41:13;10.20;91.40
7218;DHT22;3650;53.580;10.094;2023-11-21T04:43:39;10.20;91.60
7218;DHT22;3650;53.580;10.094;2023-11-21T04:46:07;10.20;91.60
7218;DHT22;3650;53.580;10.094;2023-11-21T04:48:35;10.20;91.40
7218;DHT22;3650;53.580;10.094;2023-11-21T04:51:02;10.20;91.20
7218;DHT22;3650;53.580;10.094;2023-11-21T04:53:29;10.20;91.00
7218;DHT22;3650;53.580;10.094;2023-11-21T04:55:56;10.10;90.90
7218;DHT22;3650;53.580;10.094;2023-11-21T04:58:24;10.20;91.20
7218;DHT22;3650;53.580;10.094;2023-11-21T05:00:51;10.20;91.40
7218;DHT22;3650;53.580;10.094;2023-11-21T05:03:18;10.20;91.60
7218;DHT22;3650;53.580;10.094;2023-11-21T05:05:45;10.10;91.20
7218;DHT22;3650;53.580;10.094;2023-11-21T05:08:11;10.10;91.50
7218;DHT22;3650;53.580;10.094;2023-11-21T05:10:38;10.10;91.20
7218;DHT22;3650;53.580;10.094;2023-11-21T05:13:05;10.00;91.00
7218;DHT22;3650;53.580;10.094;2023-11-21T05:15:36;10.00;91.00
7218;DHT22;3650;53.580;10.094;2023-11-21T05:18:04;10.10;91.30
7218;DHT22;3650;53.580;10.094;2023-11-21T05:20:31;10.00;91.20
7218;DHT22;3650;53.580;10.094;2023-11-21T05:22:58;10.10;91.50
7218;DHT22;3650;53.580;10.094;2023-11-21T05:25:25;10.10;91.60
7218;DHT22;3650;53.580;10.094;2023-11-21T05:27:52;10.10;91.60
7218;DHT22;3650;53.580;10.094;2023-11-21T05:30:20;10.00;91.30
7218;DHT22;3650;53.580;10.094;2023-11-21T05:32:49;10.00;91.50
7218;DHT22;3650;53.580;10.094;2023-11-21T05:35:16;10.00;91.40
7218;DHT22;3650;53.580;10.094;2023-11-21T05:37:43;10.00;91.40
7218;DHT22;3650;53.580;10.094;2023-11-21T05:40:11;10.00;91.10
7218;DHT22;3650;53.580;10.094;2023-11-21T05:42:39;10.10;91.30
7218;DHT22;3650;53.580;10.094;2023-11-21T05:45:07;10.10;91.20
7218;DHT22;3650;53.580;10.094;2023-11-21T05:47:37;10.10;91.20
7218;DHT22;3650;53.580;10.094;2023-11-21T05:50:08;10.10;91.00
7218;DHT22;3650;53.580;10.094;2023-11-21T05:52:37;10.10;91.00
7218;DHT22;3650;53.580;10.094;2023-11-21T05:55:05;10.10;91.00
7218;DHT22;3650;53.580;10.094;2023-11-21T05:57:33;10.10;91.00
7218;DHT22;3650;53.580;10.094;2023-11-21T06:00:02;10.20;90.90
7218;DHT22;3650;53.580;10.094;2023-11-21T06:02:30;10.10;90.50
7218;DHT22;3650;53.580;10.094;2023-11-21T06:04:57;10.10;90.60
7218;DHT22;3650;53.580;10.094;2023-11-21T06:07:25;10.10;90.50
7218;DHT22;3650;53.580;10.094;2023-11-21T06:09:52;10.10;90.40
7218;DHT22;3650;53.580;10.094;2023-11-21T06:12:18;10.00;90.10
7218;DHT22;3650;53.580;10.094;2023-11-21T06:14:46;10.00;90.20
7218;DHT22;3650;53.580;10.094;2023-11-21T06:17:13;10.00;90.30
7218;DHT22;3650;53.580;10.094;2023-11-21T06:19:40;10.00;90.60
7218;DHT22;3650;53.580;10.094;2023-11-21T06:22:07;10.00;90.40
7218;DHT22;3650;53.580;10.094;2023-11-21T06:24:36;9.90;91.00
7218;DHT22;3650;53.580;10.094;2023-11-21T06:27:03;9.90;90.90
7218;DHT22;3650;53.580;10.094;2023-11-21T06:29:30;9.80;90.60
7218;DHT22;3650;53.580;10.094;2023-11-21T06:31:58;9.80;90.60
7218;DHT22;3650;53.580;10.094;2023-11-21T06:34:25;9.80;90.90
7218;DHT22;3650;53.580;10.094;2023-11-21T06:36:53;9.80;90.80
7218;DHT22;3650;53.580;10.094;2023-11-21T06:39:20;9.80;91.10
7218;DHT22;3650;53.580;10.094;2023-11-21T06:41:49;9.80;91.30
7218;DHT22;3650;53.580;10.094;2023-11-21T06:44:16;9.80;91.30
7218;DHT22;3650;53.580;10.094;2023-11-21T06:46:43;9.90;91.50
7218;DHT22;3650;53.580;10.094;2023-11-21T06:49:10;9.80;91.50
7218;DHT22;3650;53.580;10.094;2023-11-21T06:51:37;9.80;91.20
7218;DHT22;3650;53.580;10.094;2023-11-21T06:54:05;9.80;91.60
7218;DHT22;3650;53.580;10.094;2023-11-21T06:56:32;9.80;91.40
7218;DHT22;3650;53.580;10.094;2023-11-21T06:59:00;9.80;91.40
7218;DHT22;3650;53.580;10.094;2023-11-21T07:01:27;9.80;91.50
7218;DHT22;3650;53.580;10.094;2023-11-21T07:03:53;9.90;91.60
7218;DHT22;3650;53.580;10.094;2023-11-21T07:06:20;9.90;91.50
7218;DHT22;3650;53.580;10.094;2023-11-21T07:08:47;9.90;91.10
7218;DHT22;3650;53.580;10.094;2023-11-21T07:11:14;9.90;90.80
7218;DHT22;3650;53.580;10.094;2023-11-21T07:13:41;9.90;90.70
7218;DHT22;3650;53.580;10.094;2023-11-21T07:16:09;9.90;91.00
7218;DHT22;3650;53.580;10.094;2023-11-21T07:18:36;9.90;91.10
7218;DHT22;3650;53.580;10.094;2023-11-21T07:21:04;9.90;90.90
7218;DHT22;3650;53.580;10.094;2023-11-21T07:23:31;9.80;90.60
7218;DHT22;3650;53.580;10.094;2023-11-21T07:25:58;9.80;90.60
7218;DHT22;3650;53.580;10.094;2023-11-21T07:28:25;9.80;90.50
7218;DHT22;3650;53.580;10.094;2023-11-21T07:30:52;9.70;90.60
7218;DHT22;3650;53.580;10.094;2023-11-21T07:33:20;9.70;90.70
7218;DHT22;3650;53.580;10.094;2023-11-21T07:35:47;9.70;90.90
7218;DHT22;3650;53.580;10.094;2023-11-21T07:38:13;9.60;90.80
7218;DHT22;3650;53.580;10.094;2023-11-21T07:40:40;9.60;90.80
7218;DHT22;3650;53.580;10.094;2023-11-21T07:43:07;9.60;90.90
7218;DHT22;3650;53.580;10.094;2023-11-21T07:45:34;9.60;91.10
7218;DHT22;3650;53.580;10.094;2023-11-21T07:48:01;9.60;91.00
7218;DHT22;3650;53.580;10.094;2023-11-21T07:50:30;9.50;91.10
7218;DHT22;3650;53.580;10.094;2023-11-21T07:52:58;9.60;91.20
7218;DHT22;3650;53.580;10.094;2023-11-21T07:55:24;9.60;91.40
7218;DHT22;3650;53.580;10.094;2023-11-21T07:57:52;9.60;91.30
7218;DHT22;3650;53.580;10.094;2023-11-21T08:00:19;9.60;91.30
7218;DHT22;3650;53.580;10.094;2023-11-21T08:02:46;9.70;91.30
7218;DHT22;3650;53.580;10.094;2023-11-21T08:05:13;9.70;91.00
7218;DHT22;3650;53.580;10.094;2023-11-21T08:07:42;9.70;90.80
7218;DHT22;3650;53.580;10.094;2023-11-21T08:10:09;9.70;90.70
7218;DHT22;3650;53.580;10.094;2023-11-21T08:12:37;9.70;90.50
7218;DHT22;3650;53.580;10.094;2023-11-21T08:15:05;9.70;90.30
7218;DHT22;3650;53.580;10.094;2023-11-21T08:17:33;9.70;90.60
7218;DHT22;3650;53.580;10.094;2023-11-21T08:20:00;9.80;90.60
7218;DHT22;3650;53.580;10.094;2023-11-21T08:22:28;9.80;90.50
7218;DHT22;3650;53.580;10.094;2023-11-21T08:24:57;9.80;90.30
7218;DHT22;3650;53.580;10.094;2023-11-21T08:27:24;9.80;90.20
7218;DHT22;3650;53.580;10.094;2023-11-21T08:29:51;9.80;89.80
7218;DHT22;3650;53.580;10.094;2023-11-21T08:32:18;9.80;89.40
7218;DHT22;3650;53.580;10.094;2023-11-21T08:34:45;9.80;89.50
7218;DHT22;3650;53.580;10.094;2023-11-21T08:37:15;9.80;89.50
7218;DHT22;3650;53.580;10.094;2023-11-21T08:39:42;9.90;89.30
7218;DHT22;3650;53.580;10.094;2023-11-21T08:42:11;9.90;89.00
7218;DHT22;3650;53.580;10.094;2023-11-21T08:44:38;9.90;89.40
7218;DHT22;3650;53.580;10.094;2023-11-21T08:47:05;9.90;89.10
7218;DHT22;3650;53.580;10.094;2023-11-21T08:49:32;9.90;88.30
7218;DHT22;3650;53.580;10.094;2023-11-21T08:51:59;9.90;88.00
7218;DHT22;3650;53.580;10.094;2023-11-21T08:54:26;9.90;87.30
7218;DHT22;3650;53.580;10.094;2023-11-21T08:56:53;9.90;86.90
7218;DHT22;3650;53.580;10.094;2023-11-21T08:59:21;9.90;86.20
7218;DHT22;3650;53.580;10.094;2023-11-21T09:01:49;9.90;85.80
7218;DHT22;3650;53.580;10.094;2023-11-21T09:04:16;9.90;85.60
7218;DHT22;3650;53.580;10.094;2023-11-21T09:06:43;9.90;85.60
7218;DHT22;3650;53.580;10.094;2023-11-21T09:09:10;9.90;86.80
7218;DHT22;3650;53.580;10.094;2023-11-21T09:11:37;9.90;86.40
7218;DHT22;3650;53.580;10.094;2023-11-21T09:14:04;9.90;86.50
7218;DHT22;3650;53.580;10.094;2023-11-21T09:16:32;9.80;87.00
7218;DHT22;3650;53.580;10.094;2023-11-21T09:18:58;9.80;87.10
7218;DHT22;3650;53.580;10.094;2023-11-21T09:21:25;9.80;88.00
7218;DHT22;3650;53.580;10.094;2023-11-21T09:23:53;9.80;88.60
7218;DHT22;3650;53.580;10.094;2023-11-21T09:26:19;9.70;88.80
7218;DHT22;3650;53.580;10.094;2023-11-21T09:28:46;9.80;90.10
7218;DHT22;3650;53.580;10.094;2023-11-21T09:31:13;9.80;90.10
7218;DHT22;3650;53.580;10.094;2023-11-21T09:33:43;9.80;91.50
7218;DHT22;3650;53.580;10.094;2023-11-21T09:36:12;9.80;91.00
7218;DHT22;3650;53.580;10.094;2023-11-21T09:38:40;9.80;91.40
7218;DHT22;3650;53.580;10.094;2023-11-21T09:41:14;9.90;91.20
7218;DHT22;3650;53.580;10.094;2023-11-21T09:43:44;9.90;90.90
7218;DHT22;3650;53.580;10.094;2023-11-21T09:46:13;9.90;90.80
7218;DHT22;3650;53.580;10.094;2023-11-21T09:48:47;9.90;90.50
7218;DHT22;3650;53.580;10.094;2023-11-21T09:51:19;9.90;90.70
7218;DHT22;3650;53.580;10.094;2023-11-21T09:53:49;9.90;90.50
7218;DHT22;3650;53.580;10.094;2023-11-21T09:56:17;9.90;90.40
7218;DHT22;3650;53.580;10.094;2023-11-21T09:58:51;9.90;90.70
7218;DHT22;3650;53.580;10.094;2023-11-21T10:01:19;10.00;90.40
7218;DHT22;3650;53.580;10.094;2023-11-21T10:03:48;10.00;90.20
7218;DHT22;3650;53.580;10.094;2023-11-21T10:06:17;10.00;90.00
7218;DHT22;3650;53.580;10.094;2023-11-21T10:08:44;10.00;89.40
7218;DHT22;3650;53.580;10.094;2023-11-21T10:11:12;10.00;89.20
7218;DHT22;3650;53.580;10.094;2023-11-21T10:13:41;10.00;89.10
7218;DHT22;3650;53.580;10.094;2023-11-21T10:16:10;10.00;89.70
7218;DHT22;3650;53.580;10.094;2023-11-21T10:18:39;10.00;88.70
7218;DHT22;3650;53.580;10.094;2023-11-21T10:21:08;9.90;90.00
7218;DHT22;3650;53.580;10.094;2023-11-21T10:23:35;10.00;89.50
7218;DHT22;3650;53.580;10.094;2023-11-21T10:26:02;9.90;90.30
7218;DHT22;3650;53.580;10.094;2023-11-21T10:28:30;9.90;90.20
7218;DHT22;3650;53.580;10.094;2023-11-21T10:30:57;10.00;89.60
7218;DHT22;3650;53.580;10.094;2023-11-21T10:33:27;10.00;89.20
7218;DHT22;3650;53.580;10.094;2023-11-21T10:35:55;9.90;89.70
7218;DHT22;3650;53.580;10.094;2023-11-21T10:38:23;9.90;88.90
7218;DHT22;3650;53.580;10.094;2023-11-21T10:40:51;9.90;87.40
7218;DHT22;3650;53.580;10.094;2023-11-21T10:43:24;9.90;87.60
7218;DHT22;3650;53.580;10.094;2023-11-21T10:45:51;9.90;88.20
7218;DHT22;3650;53.580;10.094;2023-11-21T10:48:18;9.90;88.60
7218;DHT22;3650;53.580;10.094;2023-11-21T10:50:47;9.90;88.20
7218;DHT22;3650;53.580;10.094;2023-11-21T10:53:14;9.90;88.00
7218;DHT22;3650;53.580;10.094;2023-11-21T10:55:42;9.90;88.70
7218;DHT22;3650;53.580;10.094;2023-11-21T10:58:12;9.80;88.40
7218;DHT22;3650;53.580;10.094;2023-11-21T11:00:40;9.80;88.40
7218;DHT22;3650;53.580;10.094;2023-11-21T11:03:07;9.80;87.90
7218;DHT22;3650;53.580;10.094;2023-11-21T11:05:40;9.80;86.70
7218;DHT22;3650;53.580;10.094;2023-11-21T11:08:08;9.80;86.60
7218;DHT22;3650;53.580;10.094;2023-11-21T11:10:37;9.80;87.10
7218;DHT22;3650;53.580;10.094;2023-11-21T11:13:07;9.80;86.50
7218;DHT22;3650;53.580;10.094;2023-11-21T11:15:34;9.80;84.40
7218;DHT22;3650;53.580;10.094;2023-11-21T11:18:02;9.80;83.60
7218;DHT22;3650;53.580;10.094;2023-11-21T11:20:34;9.70;83.60
7218;DHT22;3650;53.580;10.094;2023-11-21T11:23:13;9.70;83.30
7218;DHT22;3650;53.580;10.094;2023-11-21T11:25:53;9.70;84.00
7218;DHT22;3650;53.580;10.094;2023-11-21T11:28:35;9.70;84.90
7218;DHT22;3650;53.580;10.094;2023-11-21T11:31:13;9.60;85.40
7218;DHT22;3650;53.580;10.094;2023-11-21T11:33:45;9.60;85.10
7218;DHT22;3650;53.580;10.094;2023-11-21T11:36:26;9.60;84.50
7218;DHT22;3650;53.580;10.094;2023-11-21T11:38:56;9.60;85.40
7218;DHT22;3650;53.580;10.094;2023-11-21T11:41:25;9.60;86.00
7218;DHT22;3650;53.580;10.094;2023-11-21T11:43:54;9.60;85.40
7218;DHT22;3650;53.580;10.094;2023-11-21T11:46:40;9.60;85.40
7218;DHT22;3650;53.580;10.094;2023-11-21T11:49:08;9.60;83.70
7218;DHT22;3650;53.580;10.094;2023-11-21T11:51:34;9.50;82.90
7218;DHT22;3650;53.580;10.094;2023-11-21T11:54:02;9.40;81.60
7218;DHT22;3650;53.580;10.094;2023-11-21T11:56:34;9.40;82.00
7218;DHT22;3650;53.580;10.094;2023-11-21T11:59:04;9.40;82.80
7218;DHT22;3650;53.580;10.094;2023-11-21T12:01:34;9.40;82.30
7218;DHT22;3650;53.580;10.094;2023-11-21T12:04:23;9.40;82.70
7218;DHT22;3650;53.580;10.094;2023-11-21T12:06:55;9.40;83.40
7218;DHT22;3650;53.580;10.094;2023-11-21T12:09:24;9.40;83.50
7218;DHT22;3650;53.580;10.094;2023-11-21T12:11:53;9.50;83.00
7218;DHT22;3650;53.580;10.094;2023-11-21T12:14:21;9.50;83.60
7218;DHT22;3650;53.580;10.094;2023-11-21T12:16:49;9.50;83.30
7218;DHT22;3650;53.580;10.094;2023-11-21T12:19:17;9.50;83.20
7218;DHT22;3650;53.580;10.094;2023-11-21T12:21:44;9.50;82.80
7218;DHT22;3650;53.580;10.094;2023-11-21T12:24:11;9.50;80.60
7218;DHT22;3650;53.580;10.094;2023-11-21T12:26:39;9.50;80.60
7218;DHT22;3650;53.580;10.094;2023-11-21T12:29:06;9.50;79.70
7218;DHT22;3650;53.580;10.094;2023-11-21T12:31:34;9.40;79.30
7218;DHT22;3650;53.580;10.094;2023-11-21T12:34:01;9.40;80.10
7218;DHT22;3650;53.580;10.094;2023-11-21T12:36:29;9.40;80.60
7218;DHT22;3650;53.580;10.094;2023-11-21T12:38:56;9.40;81.30
7218;DHT22;3650;53.580;10.094;2023-11-21T12:41:23;9.40;81.50
7218;DHT22;3650;53.580;10.094;2023-11-21T12:43:49;9.30;81.30
7218;DHT22;3650;53.580;10.094;2023-11-21T12:46:16;9.40;80.80
7218;DHT22;3650;53.580;10.094;2023-11-21T12:48:45;9.30;80.80
7218;DHT22;3650;53.580;10.094;2023-11-21T12:51:12;9.30;81.50
7218;DHT22;3650;53.580;10.094;2023-11-21T12:53:40;9.30;83.20
7218;DHT22;3650;53.580;10.094;2023-11-21T12:56:07;9.40;83.90
7218;DHT22;3650;53.580;10.094;2023-11-21T12:58:35;9.30;83.70
7218;DHT22;3650;53.580;10.094;2023-11-21T13:01:02;9.30;83.50
7218;DHT22;3650;53.580;10.094;2023-11-21T13:03:30;9.30;83.40
7218;DHT22;3650;53.580;10.094;2023-11-21T13:05:59;9.30;84.40
7218;DHT22;3650;53.580;10.094;2023-11-21T13:08:26;9.30;85.20
7218;DHT22;3650;53.580;10.094;2023-11-21T13:10:56;9.30;85.20
7218;DHT22;3650;53.580;10.094;2023-11-21T13:13:25;9.30;85.20
7218;DHT22;3650;53.580;10.094;2023-11-21T13:15:54;9.20;86.50
7218;DHT22;3650;53.580;10.094;2023-11-21T13:18:22;9.20;86.20
7218;DHT22;3650;53.580;10.094;2023-11-21T13:20:49;9.20;87.30
7218;DHT22;3650;53.580;10.094;2023-11-21T13:23:18;9.20;87.90
7218;DHT22;3650;53.580;10.094;2023-11-21T13:25:45;9.20;88.70
7218;DHT22;3650;53.580;10.094;2023-11-21T13:28:13;9.20;88.50
7218;DHT22;3650;53.580;10.094;2023-11-21T13:30:41;9.20;88.20
7218;DHT22;3650;53.580;10.094;2023-11-21T13:33:10;9.10;87.90
7218;DHT22;3650;53.580;10.094;2023-11-21T13:35:44;9.10;88.20
7218;DHT22;3650;53.580;10.094;2023-11-21T13:38:14;9.10;89.10
7218;DHT22;3650;53.580;10.094;2023-11-21T13:40:47;9.10;89.40
7218;DHT22;3650;53.580;10.094;2023-11-21T13:43:16;9.10;89.00
7218;DHT22;3650;53.580;10.094;2023-11-21T13:45:44;9.10;89.10
7218;DHT22;3650;53.580;10.094;2023-11-21T13:48:12;9.10;89.20
7218;DHT22;3650;53.580;10.094;2023-11-21T13:50:40;9.00;89.20
7218;DHT22;3650;53.580;10.094;2023-11-21T13:53:14;9.10;89.60
7218;DHT22;3650;53.580;10.094;2023-11-21T13:55:48;9.10;88.70
7218;DHT22;3650;53.580;10.094;2023-11-21T13:58:16;9.10;88.50
7218;DHT22;3650;53.580;10.094;2023-11-21T14:00:48;9.10;89.00
7218;DHT22;3650;53.580;10.094;2023-11-21T14:03:22;9.10;88.90
7218;DHT22;3650;53.580;10.094;2023-11-21T14:05:49;9.10;88.50
7218;DHT22;3650;53.580;10.094;2023-11-21T14:08:19;9.10;88.40
7218;DHT22;3650;53.580;10.094;2023-11-21T14:10:48;9.10;87.90
7218;DHT22;3650;53.580;10.094;2023-11-21T14:13:21;9.10;86.90
7218;DHT22;3650;53.580;10.094;2023-11-21T14:15:49;9.10;86.10
7218;DHT22;3650;53.580;10.094;2023-11-21T14:18:23;9.00;86.10
7218;DHT22;3650;53.580;10.094;2023-11-21T14:20:56;9.10;86.70
7218;DHT22;3650;53.580;10.094;2023-11-21T14:23:22;9.20;85.20
7218;DHT22;3650;53.580;10.094;2023-11-21T14:25:51;9.10;85.10
7218;DHT22;3650;53.580;10.094;2023-11-21T14:28:18;9.10;85.20
7218;DHT22;3650;53.580;10.094;2023-11-21T14:30:45;9.10;86.50
7218;DHT22;3650;53.580;10.094;2023-11-21T14:33:12;9.10;86.10
7218;DHT22;3650;53.580;10.094;2023-11-21T14:35:39;9.10;82.60
7218;DHT22;3650;53.580;10.094;2023-11-21T14:38:05;9.10;81.50
7218;DHT22;3650;53.580;10.094;2023-11-21T14:40:32;9.10;81.50
7218;DHT22;3650;53.580;10.094;2023-11-21T14:43:03;9.10;82.50
7218;DHT22;3650;53.580;10.094;2023-11-21T14:45:32;9.20;82.70
7218;DHT22;3650;53.580;10.094;2023-11-21T14:47:59;9.20;82.60
7218;DHT22;3650;53.580;10.094;2023-11-21T14:50:32;9.20;81.40
7218;DHT22;3650;53.580;10.094;2023-11-21T14:53:15;9.20;81.80
7218;DHT22;3650;53.580;10.094;2023-11-21T14:55:42;9.20;82.40
7218;DHT22;3650;53.580;10.094;2023-11-21T14:58:23;9.30;81.40
7218;DHT22;3650;53.580;10.094;2023-11-21T15:00:55;9.20;79.90
7218;DHT22;3650;53.580;10.094;2023-11-21T15:03:26;9.10;79.40
7218;DHT22;3650;53.580;10.094;2023-11-21T15:06:09;9.10;79.60
7218;DHT22;3650;53.580;10.094;2023-11-21T15:08:57;9.10;80.40
7218;DHT22;3650;53.580;10.094;2023-11-21T15:11:41;9.10;81.00
7218;DHT22;3650;53.580;10.094;2023-11-21T15:14:09;9.00;83.40
7218;DHT22;3650;53.580;10.094;2023-11-21T15:16:39;9.00;82.50
7218;DHT22;3650;53.580;10.094;2023-11-21T15:19:09;9.00;83.70
7218;DHT22;3650;53.580;10.094;2023-11-21T15:21:38;9.00;83.70
7218;DHT22;3650;53.580;10.094;2023-11-21T15:24:05;9.00;84.50
7218;DHT22;3650;53.580;10.094;2023-11-21T15:26:33;9.00;84.00
7218;DHT22;3650;53.580;10.094;2023-11-21T15:28:59;9.00;83.80
7218;DHT22;3650;53.580;10.094;2023-11-21T15:31:28;8.90;82.80
7218;DHT22;3650;53.580;10.094;2023-11-21T15:33:55;8.90;83.00
7218;DHT22;3650;53.580;10.094;2023-11-21T15:36:25;8.90;83.30
7218;DHT22;3650;53.580;10.094;2023-11-21T15:38:52;8.90;83.80
7218;DHT22;3650;53.580;10.094;2023-11-21T15:41:19;8.90;83.60
7218;DHT22;3650;53.580;10.094;2023-11-21T15:43:47;8.90;83.40
7218;DHT22;3650;53.580;10.094;2023-11-21T15:46:14;8.80;83.30
7218;DHT22;3650;53.580;10.094;2023-11-21T15:48:42;8.80;83.60
7218;DHT22;3650;53.580;10.094;2023-11-21T15:51:15;8.80;83.50
7218;DHT22;3650;53.580;10.094;2023-11-21T15:53:42;8.80;83.90
7218;DHT22;3650;53.580;10.094;2023-11-21T15:56:09;8.70;84.00
7218;DHT22;3650;53.580;10.094;2023-11-21T15:58:38;8.70;83.60
7218;DHT22;3650;53.580;10.094;2023-11-21T16:01:08;8.70;83.70